sim
Sign-in with your pilot id or email,
or register
Callsign
Passwort

Schedule Details

Flight Number: OEO1579
Departure: Glasgow International Airport (EGPF) at 11:20
Arrival: Munich Airport (EDDM) at 13:40

Weather Information
Getting current METAR information for EGPF 210320Z AUTO VRB01KT 0150 FG VV/// 10/09 Q1017
Getting current METAR information for EDDM 210320Z 15001KT CAVOK 08/07 Q1016 NOSIG

Schedule Frequency

Route Map